createdAt,value
2019-04-16T00:02:00.378Z,9.03
2019-04-16T00:04:53.637Z,10.43
2019-04-16T00:07:42.471Z,10.03
2019-04-16T00:10:22.142Z,10.13
2019-04-16T00:13:11.618Z,10.40
2019-04-16T00:15:42.153Z,10.00
2019-04-16T00:18:12.654Z,10.00
2019-04-16T00:21:02.080Z,10.23
2019-04-16T00:23:51.569Z,9.63
2019-04-16T00:26:26.551Z,10.23
2019-04-16T00:28:54.671Z,10.00
2019-04-16T00:31:27.655Z,10.63
2019-04-16T00:33:58.196Z,9.53
2019-04-16T00:36:28.593Z,11.40
2019-04-16T00:38:59.055Z,10.90
2019-04-16T00:41:29.615Z,10.57
2019-04-16T00:44:00.070Z,11.57
2019-04-16T00:46:30.565Z,11.37
2019-04-16T00:49:01.034Z,10.97
2019-04-16T00:51:32.985Z,11.10
2019-04-16T00:54:03.580Z,10.63
2019-04-16T00:56:34.106Z,11.10
2019-04-16T00:59:04.744Z,11.20
2019-04-16T01:01:35.334Z,11.27
2019-04-16T01:04:07.025Z,11.73
2019-04-16T01:06:37.914Z,10.83
2019-04-16T01:09:09.941Z,10.43
2019-04-16T01:11:40.481Z,9.93
2019-04-16T01:14:11.940Z,10.20
2019-04-16T01:16:42.538Z,9.60
2019-04-16T01:19:13.038Z,10.10
2019-04-16T01:21:45.568Z,10.47
2019-04-16T01:24:17.556Z,10.00
2019-04-16T01:26:48.508Z,10.70
2019-04-16T01:29:20.715Z,8.97
2019-04-16T01:32:01.851Z,10.03
2019-04-16T01:34:51.434Z,9.83
2019-04-16T01:37:41.757Z,10.13
2019-04-16T01:40:18.516Z,9.67
2019-04-16T01:42:48.211Z,10.00
2019-04-16T01:45:18.619Z,9.07
2019-04-16T01:47:49.180Z,9.30
2019-04-16T01:50:19.708Z,9.97
2019-04-16T01:52:50.595Z,9.40
2019-04-16T01:55:25.505Z,8.90
2019-04-16T01:57:53.467Z,8.83
2019-04-16T02:00:24.164Z,9.43
2019-04-16T02:02:54.618Z,9.27
2019-04-16T02:05:25.166Z,9.23
2019-04-16T02:07:56.373Z,9.07
2019-04-16T02:10:27.814Z,8.60
2019-04-16T02:12:58.548Z,9.67
2019-04-16T02:15:29.090Z,9.90
2019-04-16T02:18:00.255Z,9.37
2019-04-16T02:20:30.849Z,8.97
2019-04-16T02:23:01.284Z,9.70
2019-04-16T02:25:31.829Z,9.70
2019-04-16T02:28:02.379Z,8.03
2019-04-16T02:30:37.594Z,9.00
2019-04-16T02:33:05.233Z,9.30
2019-04-16T02:35:35.976Z,8.43
2019-04-16T02:38:10.823Z,8.87
2019-04-16T02:40:40.564Z,9.20
2019-04-16T02:43:11.297Z,9.53
2019-04-16T02:45:41.830Z,9.20
2019-04-16T02:48:16.959Z,9.20
2019-04-16T02:50:47.480Z,9.33
2019-04-16T02:53:37.025Z,9.33
2019-04-16T02:56:26.674Z,9.03
2019-04-16T02:59:10.026Z,9.07
2019-04-16T03:01:55.324Z,8.20
2019-04-16T03:04:29.832Z,8.77
2019-04-16T03:07:02.908Z,8.40
2019-04-16T03:09:32.555Z,8.60
2019-04-16T03:12:03.128Z,8.30
2019-04-16T03:14:34.656Z,8.23
2019-04-16T03:17:17.430Z,8.77
2019-04-16T03:19:50.977Z,9.40
2019-04-16T03:22:20.339Z,8.47
2019-04-16T03:24:50.846Z,8.10
2019-04-16T03:27:22.243Z,9.27
2019-04-16T03:29:53.444Z,8.90
2019-04-16T03:32:23.892Z,9.33
2019-04-16T03:34:54.440Z,8.57
2019-04-16T03:37:24.893Z,9.47
2019-04-16T03:39:55.482Z,8.47
2019-04-16T03:42:27.367Z,8.73
2019-04-16T03:44:58.732Z,8.83
2019-04-16T03:47:29.231Z,8.63
2019-04-16T03:50:00.225Z,8.77
2019-04-16T03:52:30.971Z,9.17
2019-04-16T03:55:01.542Z,8.30
2019-04-16T03:57:33.225Z,8.97
2019-04-16T04:00:11.131Z,8.90
2019-04-16T04:02:38.209Z,8.90
2019-04-16T04:05:08.903Z,8.87
2019-04-16T04:07:43.866Z,8.47
2019-04-16T04:10:14.302Z,8.30
2019-04-16T04:12:46.561Z,8.50
2019-04-16T04:15:17.286Z,8.10
2019-04-16T04:17:49.805Z,8.20
2019-04-16T04:20:20.307Z,8.47
2019-04-16T04:22:50.774Z,8.10
2019-04-16T04:25:21.369Z,9.07
2019-04-16T04:27:51.752Z,7.17
2019-04-16T04:30:25.647Z,7.77
2019-04-16T04:32:56.262Z,6.77
2019-04-16T04:35:26.774Z,7.43
2019-04-16T04:38:00.740Z,7.30
2019-04-16T04:40:43.834Z,8.00
2019-04-16T04:43:04.539Z,7.20
2019-04-16T04:45:37.615Z,7.30
2019-04-16T04:48:11.136Z,7.27
2019-04-16T04:50:41.911Z,7.10
2019-04-16T04:53:15.636Z,6.90
2019-04-16T04:55:45.812Z,7.90
2019-04-16T04:58:17.574Z,7.93
2019-04-16T05:00:48.142Z,7.53
2019-04-16T05:03:38.799Z,7.60
2019-04-16T05:06:10.613Z,7.27
2019-04-16T05:08:41.263Z,7.47
2019-04-16T05:11:12.586Z,7.00
2019-04-16T05:13:46.368Z,7.10
2019-04-16T05:16:16.967Z,7.23
2019-04-16T05:18:47.857Z,7.77
2019-04-16T05:21:19.507Z,8.33
2019-04-16T05:23:50.329Z,7.80
2019-04-16T05:26:21.023Z,7.73
2019-04-16T05:28:51.622Z,7.90
2019-04-16T05:31:25.646Z,7.67
2019-04-16T05:33:54.527Z,7.77
2019-04-16T05:36:25.249Z,8.23
2019-04-16T05:38:56.447Z,7.93
2019-04-16T05:41:27.153Z,7.97
2019-04-16T05:43:58.480Z,7.33
2019-04-16T05:46:30.124Z,7.70
2019-04-16T05:49:01.706Z,7.17
2019-04-16T05:51:32.569Z,6.80
2019-04-16T05:54:18.934Z,7.10
2019-04-16T05:56:55.468Z,6.93
2019-04-16T05:59:24.882Z,7.23
2019-04-16T06:02:07.107Z,7.37
2019-04-16T06:04:37.742Z,6.97
2019-04-16T06:07:08.541Z,7.07
2019-04-16T06:09:41.499Z,7.33
2019-04-16T06:12:11.539Z,7.53
2019-04-16T06:14:53.823Z,6.90
2019-04-16T06:17:32.808Z,7.00
2019-04-16T06:20:22.593Z,7.13
2019-04-16T06:23:02.575Z,7.27
2019-04-16T06:25:42.070Z,6.47
2019-04-16T06:28:32.493Z,6.57
2019-04-16T06:31:22.216Z,5.90
2019-04-16T06:34:11.887Z,6.20
2019-04-16T06:36:48.569Z,6.10
2019-04-16T06:39:38.297Z,6.23
2019-04-16T06:42:28.007Z,5.77
2019-04-16T06:45:01.713Z,6.37
2019-04-16T06:47:44.961Z,6.27
2019-04-16T06:50:32.438Z,4.77
2019-04-16T06:53:23.708Z,5.73
2019-04-16T06:56:13.490Z,5.07
2019-04-16T06:58:51.307Z,5.10
2019-04-16T07:01:41.943Z,4.80
2019-04-16T07:04:18.125Z,5.10
2019-04-16T07:07:09.243Z,4.80
2019-04-16T07:09:45.901Z,4.83
2019-04-16T07:12:18.878Z,4.20
2019-04-16T07:14:49.833Z,5.30
2019-04-16T07:17:20.510Z,4.20
2019-04-16T07:19:51.149Z,4.40
2019-04-16T07:22:22.195Z,4.37
2019-04-16T07:24:57.027Z,4.83
2019-04-16T07:27:38.569Z,3.80
2019-04-16T07:30:28.906Z,5.27
2019-04-16T07:33:18.620Z,4.37
2019-04-16T07:35:55.236Z,4.77
2019-04-16T07:38:35.190Z,3.93
2019-04-16T07:41:25.282Z,4.70
2019-04-16T07:44:10.240Z,3.83
2019-04-16T07:46:56.827Z,4.13
2019-04-16T07:49:32.386Z,3.90
2019-04-16T07:52:22.174Z,3.83
2019-04-16T07:55:12.006Z,3.80
2019-04-16T07:57:42.674Z,4.10
2019-04-16T08:00:15.186Z,4.00
2019-04-16T08:02:45.874Z,3.50
2019-04-16T08:05:16.608Z,3.63
2019-04-16T08:07:49.790Z,3.90
2019-04-16T08:10:19.775Z,3.90
2019-04-16T08:12:56.957Z,3.50
2019-04-16T08:15:27.381Z,3.30
2019-04-16T08:17:58.428Z,3.60
2019-04-16T08:20:30.411Z,3.57
2019-04-16T08:23:06.614Z,3.00
2019-04-16T08:25:38.379Z,3.40
2019-04-16T08:28:09.088Z,3.50
2019-04-16T08:30:39.680Z,2.90
2019-04-16T08:33:11.238Z,2.77
2019-04-16T08:35:48.201Z,3.00
2019-04-16T08:38:18.755Z,2.93
2019-04-16T08:40:49.391Z,2.90
2019-04-16T08:43:20.017Z,2.80
2019-04-16T08:45:50.916Z,2.57
2019-04-16T08:48:21.607Z,2.80
2019-04-16T08:50:52.172Z,3.03
2019-04-16T08:53:22.863Z,3.50
2019-04-16T08:55:53.531Z,3.90
2019-04-16T08:58:24.098Z,3.50
2019-04-16T09:00:54.839Z,3.97
2019-04-16T09:03:26.834Z,3.40
2019-04-16T09:05:57.781Z,3.23
2019-04-16T09:08:44.851Z,3.40
2019-04-16T09:11:23.188Z,3.20
2019-04-16T09:13:52.018Z,3.23
2019-04-16T09:16:22.746Z,2.90
2019-04-16T09:19:07.952Z,3.53
2019-04-16T09:21:43.406Z,3.10
2019-04-16T09:24:29.844Z,2.77
2019-04-16T09:27:16.709Z,2.70
2019-04-16T09:30:02.582Z,2.77
2019-04-16T09:32:40.870Z,2.50
2019-04-16T09:35:19.867Z,3.13
2019-04-16T09:37:53.576Z,3.23
2019-04-16T09:40:43.360Z,2.47
2019-04-16T09:43:18.433Z,2.70
2019-04-16T09:45:49.408Z,2.50
2019-04-16T09:48:20.296Z,2.83
2019-04-16T09:50:51.600Z,2.60
2019-04-16T09:53:32.876Z,2.80
2019-04-16T09:55:54.508Z,2.73
2019-04-16T09:58:25.695Z,2.70
2019-04-16T10:01:05.949Z,2.73
2019-04-16T10:03:38.779Z,2.53
2019-04-16T10:06:09.521Z,2.60
2019-04-16T10:08:44.339Z,2.77
2019-04-16T10:11:12.621Z,2.50
2019-04-16T10:13:43.360Z,3.10
2019-04-16T10:16:14.437Z,3.20
2019-04-16T10:18:45.237Z,3.23
2019-04-16T10:21:18.868Z,3.10
2019-04-16T10:24:07.366Z,3.53
2019-04-16T10:26:38.107Z,3.23
2019-04-16T10:29:13.249Z,3.10
2019-04-16T10:31:44.126Z,2.43
2019-04-16T10:34:14.951Z,3.10
2019-04-16T10:36:45.652Z,2.63
2019-04-16T10:39:26.354Z,2.87
2019-04-16T10:42:05.320Z,3.23
2019-04-16T10:44:44.565Z,3.30
2019-04-16T10:47:35.808Z,3.80
2019-04-16T10:50:18.011Z,3.83
2019-04-16T10:53:04.237Z,3.80
2019-04-16T10:55:54.083Z,3.10
2019-04-16T10:58:43.719Z,4.20
2019-04-16T11:01:20.104Z,3.37
2019-04-16T11:04:07.371Z,3.43
2019-04-16T11:06:41.014Z,3.43
2019-04-16T11:09:11.824Z,3.10
2019-04-16T11:11:42.513Z,3.20
2019-04-16T11:14:13.587Z,2.30
2019-04-16T11:16:49.029Z,3.70
2019-04-16T11:19:19.871Z,4.10
2019-04-16T11:21:50.436Z,3.70
2019-04-16T11:24:24.320Z,3.43
2019-04-16T11:26:55.043Z,3.40
2019-04-16T11:29:25.754Z,4.30
2019-04-16T11:31:56.620Z,4.57
2019-04-16T11:34:27.175Z,3.97
2019-04-16T11:36:58.519Z,4.40
2019-04-16T11:39:29.500Z,4.83
2019-04-16T11:42:00.208Z,4.40
2019-04-16T11:44:30.988Z,4.43
2019-04-16T11:47:04.335Z,5.10
2019-04-16T11:49:35.075Z,4.40
2019-04-16T11:52:05.828Z,4.57
2019-04-16T11:54:36.347Z,4.10
2019-04-16T11:57:07.047Z,3.93
2019-04-16T11:59:38.327Z,4.10
2019-04-16T12:02:20.654Z,3.93
2019-04-16T12:05:10.381Z,4.30
2019-04-16T12:07:47.232Z,3.60
2019-04-16T12:10:37.279Z,3.33
2019-04-16T12:13:27.046Z,3.57
2019-04-16T12:16:16.817Z,3.30
2019-04-16T12:19:04.061Z,3.90
2019-04-16T12:21:52.884Z,3.90
2019-04-16T12:24:42.686Z,3.50
2019-04-16T12:27:32.300Z,3.40
2019-04-16T12:30:22.040Z,4.00
2019-04-16T12:33:07.716Z,3.90
2019-04-16T12:35:39.543Z,4.30
2019-04-16T12:38:18.375Z,4.30
2019-04-16T12:41:01.061Z,4.33
2019-04-16T12:43:35.118Z,4.73
2019-04-16T12:46:15.173Z,4.87
2019-04-16T12:48:54.872Z,5.20
2019-04-16T12:51:44.690Z,5.20
2019-04-16T12:54:37.671Z,4.53
2019-04-16T12:57:16.778Z,4.77
2019-04-16T13:00:06.030Z,3.73
2019-04-16T13:02:55.907Z,2.63
2019-04-16T13:05:33.761Z,2.63
2019-04-16T13:08:23.535Z,4.23
2019-04-16T13:11:08.090Z,4.60
2019-04-16T13:13:51.872Z,4.70
2019-04-16T13:16:35.592Z,4.83
2019-04-16T13:19:24.279Z,4.27
2019-04-16T13:21:59.920Z,4.70
2019-04-16T13:24:35.420Z,4.80
2019-04-16T13:27:11.418Z,4.87
2019-04-16T13:29:42.017Z,5.13
2019-04-16T13:32:13.068Z,5.83
2019-04-16T13:34:43.875Z,4.27
2019-04-16T13:37:14.556Z,5.30
2019-04-16T13:40:04.485Z,5.97
2019-04-16T13:42:35.550Z,6.13
2019-04-16T13:45:27.586Z,7.27
2019-04-16T13:48:14.775Z,6.63
2019-04-16T13:50:45.532Z,5.70
2019-04-16T13:53:29.060Z,7.17
2019-04-16T13:56:17.440Z,6.23
2019-04-16T13:58:56.044Z,6.23
2019-04-16T14:01:29.452Z,7.13
2019-04-16T14:04:00.195Z,6.40
2019-04-16T14:06:30.925Z,7.40
2019-04-16T14:09:02.341Z,7.63
2019-04-16T14:11:34.598Z,8.10
2019-04-16T14:14:07.625Z,11.17
2019-04-16T14:16:43.816Z,8.47
2019-04-16T14:19:14.972Z,8.97
2019-04-16T14:21:46.030Z,7.60
2019-04-16T14:24:16.933Z,7.57
2019-04-16T14:26:47.743Z,7.40
2019-04-16T14:29:19.445Z,6.80
2019-04-16T14:31:50.204Z,7.33
2019-04-16T14:34:30.482Z,7.53
2019-04-16T14:37:01.502Z,7.23
2019-04-16T14:39:35.623Z,6.47
2019-04-16T14:42:06.410Z,6.60
2019-04-16T14:44:41.600Z,6.57
2019-04-16T14:47:22.090Z,8.00
2019-04-16T14:49:53.829Z,5.70
2019-04-16T14:52:24.496Z,6.90
2019-04-16T14:55:01.767Z,5.60
2019-04-16T14:57:32.556Z,7.30
2019-04-16T15:00:22.470Z,6.70
2019-04-16T15:03:04.233Z,8.40
2019-04-16T15:05:47.677Z,7.83
2019-04-16T15:08:29.752Z,6.93
2019-04-16T15:11:20.762Z,8.60
2019-04-16T15:14:07.701Z,8.27
2019-04-16T15:16:51.612Z,9.57
2019-04-16T15:19:43.776Z,8.63
2019-04-16T15:22:22.876Z,11.83
2019-04-16T15:25:13.445Z,10.80
2019-04-16T15:28:03.573Z,9.00
2019-04-16T15:30:53.351Z,9.47
2019-04-16T15:33:43.112Z,9.57
2019-04-16T15:36:19.420Z,9.67
2019-04-16T15:39:08.514Z,9.30
2019-04-16T15:41:59.012Z,8.00
2019-04-16T15:44:48.850Z,9.97
2019-04-16T15:47:32.743Z,10.37
2019-04-16T15:50:08.072Z,9.07
2019-04-16T15:52:57.901Z,8.57
2019-04-16T15:55:41.080Z,8.47
2019-04-16T15:58:21.792Z,8.20
2019-04-16T16:01:11.558Z,7.53
2019-04-16T16:04:01.339Z,7.17
2019-04-16T16:06:32.537Z,10.00
2019-04-16T16:09:17.103Z,11.60
2019-04-16T16:11:57.447Z,12.77
2019-04-16T16:14:33.236Z,12.90
2019-04-16T16:17:00.539Z,17.43
2019-04-16T16:19:31.201Z,10.93
2019-04-16T16:22:01.840Z,10.43
2019-04-16T16:24:35.752Z,10.77
2019-04-16T16:27:04.936Z,12.07
2019-04-16T16:29:37.954Z,12.60
2019-04-16T16:32:08.721Z,12.53
2019-04-16T16:34:39.255Z,12.23
2019-04-16T16:37:09.898Z,13.07
2019-04-16T16:39:40.650Z,10.27
2019-04-16T16:42:11.367Z,8.97
2019-04-16T16:44:42.021Z,8.87
2019-04-16T16:47:20.157Z,9.73
2019-04-16T16:49:53.343Z,9.73
2019-04-16T16:52:43.080Z,11.40
2019-04-16T16:55:18.363Z,12.60
2019-04-16T16:57:55.361Z,11.37
2019-04-16T17:00:45.172Z,12.03
2019-04-16T17:03:34.755Z,11.63
2019-04-16T17:06:07.969Z,11.57
2019-04-16T17:08:38.722Z,10.60
2019-04-16T17:11:16.491Z,11.40
2019-04-16T17:13:41.632Z,12.67
2019-04-16T17:16:14.459Z,13.47
2019-04-16T17:18:45.597Z,12.73
2019-04-16T17:21:16.648Z,12.57
2019-04-16T17:23:48.392Z,11.67
2019-04-16T17:26:19.026Z,12.77
2019-04-16T17:28:49.825Z,14.37
2019-04-16T17:31:22.144Z,16.93
2019-04-16T17:33:52.759Z,17.67
2019-04-16T17:36:24.692Z,16.67
2019-04-16T17:38:56.594Z,18.13
2019-04-16T17:41:32.552Z,20.97
2019-04-16T17:44:22.249Z,22.67
2019-04-16T17:47:05.023Z,22.27
2019-04-16T17:49:42.380Z,22.53
2019-04-16T17:52:32.197Z,21.57
2019-04-16T17:55:10.629Z,19.13
2019-04-16T17:57:47.942Z,20.47
2019-04-16T18:00:38.360Z,21.83
2019-04-16T18:03:28.495Z,32.53
2019-04-16T18:06:06.407Z,34.30
2019-04-16T18:08:56.071Z,31.90
2019-04-16T18:11:46.476Z,31.67
2019-04-16T18:14:36.206Z,29.63
2019-04-16T18:17:27.811Z,21.47
2019-04-16T18:20:08.731Z,20.17
2019-04-16T18:22:45.021Z,18.63
2019-04-16T18:25:35.444Z,17.47
2019-04-16T18:28:11.250Z,18.33
2019-04-16T18:31:00.992Z,35.67
2019-04-16T18:33:42.719Z,29.47
2019-04-16T18:36:32.321Z,30.47
2019-04-16T18:39:24.509Z,17.93
2019-04-16T18:42:05.531Z,15.00
2019-04-16T18:44:51.292Z,14.77
2019-04-16T18:47:41.452Z,18.77
2019-04-16T18:50:22.189Z,20.37
2019-04-16T18:52:51.549Z,20.10
2019-04-16T18:55:22.469Z,20.60
2019-04-16T18:57:53.571Z,19.33
2019-04-16T19:00:31.993Z,22.07
2019-04-16T19:03:03.417Z,18.80
2019-04-16T19:05:34.593Z,18.00
2019-04-16T19:08:06.077Z,18.50
2019-04-16T19:10:37.405Z,18.73
2019-04-16T19:13:11.203Z,20.30
2019-04-16T19:15:40.917Z,20.10
2019-04-16T19:18:19.606Z,22.17
2019-04-16T19:20:51.577Z,26.83
2019-04-16T19:23:21.355Z,21.60
2019-04-16T19:25:51.832Z,45.27
2019-04-16T19:28:25.072Z,32.10
2019-04-16T19:30:55.910Z,25.10
2019-04-16T19:33:26.509Z,35.87
2019-04-16T19:35:58.315Z,22.87
2019-04-16T19:38:29.359Z,18.17
2019-04-16T19:41:00.420Z,17.73
2019-04-16T19:43:34.142Z,18.80
2019-04-16T19:46:05.237Z,17.97
2019-04-16T19:48:36.556Z,17.90
2019-04-16T19:51:08.910Z,17.40
2019-04-16T19:53:39.729Z,17.03
2019-04-16T19:56:10.402Z,17.07
2019-04-16T19:58:40.964Z,16.97
2019-04-16T20:01:12.268Z,16.67
2019-04-16T20:03:43.581Z,16.57
2019-04-16T20:06:14.614Z,16.87
2019-04-16T20:08:45.352Z,18.17
2019-04-16T20:11:20.451Z,17.40
2019-04-16T20:13:48.579Z,17.10
2019-04-16T20:16:19.456Z,27.63
2019-04-16T20:18:51.560Z,28.93
2019-04-16T20:21:23.724Z,30.43
2019-04-16T20:23:54.430Z,23.80
2019-04-16T20:26:24.893Z,19.93
2019-04-16T20:28:55.977Z,18.43
2019-04-16T20:31:27.091Z,15.57
2019-04-16T20:33:57.782Z,14.60
2019-04-16T20:36:29.879Z,12.40
2019-04-16T20:39:01.454Z,12.97
2019-04-16T20:41:33.749Z,12.33
2019-04-16T20:44:04.421Z,11.43
2019-04-16T20:46:34.944Z,13.37
2019-04-16T20:49:09.799Z,12.50
2019-04-16T20:51:37.937Z,12.03
2019-04-16T20:54:12.800Z,12.00
2019-04-16T20:56:40.960Z,11.97
2019-04-16T20:59:11.503Z,11.50
2019-04-16T21:01:41.929Z,11.50
2019-04-16T21:04:12.489Z,10.80
2019-04-16T21:06:43.079Z,11.03
2019-04-16T21:09:13.530Z,10.87
2019-04-16T21:11:44.057Z,9.73
2019-04-16T21:14:14.454Z,9.87
2019-04-16T21:16:45.203Z,10.47
2019-04-16T21:19:23.218Z,10.67
2019-04-16T21:21:47.851Z,10.77
2019-04-16T21:24:18.295Z,10.73
2019-04-16T21:26:51.170Z,10.63
2019-04-16T21:29:34.344Z,10.43
2019-04-16T21:32:05.350Z,9.83
2019-04-16T21:34:58.625Z,11.03
2019-04-16T21:37:46.138Z,11.47
2019-04-16T21:40:17.204Z,11.10
2019-04-16T21:42:47.672Z,10.73
2019-04-16T21:45:19.590Z,11.27
2019-04-16T21:47:54.773Z,11.63
2019-04-16T21:50:22.172Z,11.93
2019-04-16T21:52:55.588Z,11.83
2019-04-16T21:55:25.034Z,11.03
2019-04-16T21:57:55.412Z,11.00
2019-04-16T22:00:44.980Z,11.20
2019-04-16T22:03:18.672Z,12.47
2019-04-16T22:05:49.121Z,11.93
2019-04-16T22:08:19.638Z,12.33
2019-04-16T22:10:50.043Z,12.10
2019-04-16T22:13:20.686Z,12.67
2019-04-16T22:15:53.725Z,13.20
2019-04-16T22:18:23.748Z,12.60
2019-04-16T22:20:54.169Z,13.40
2019-04-16T22:23:24.896Z,12.63
2019-04-16T22:25:57.156Z,12.87
2019-04-16T22:28:27.678Z,12.57
2019-04-16T22:30:58.241Z,12.30
2019-04-16T22:33:28.724Z,13.13
2019-04-16T22:35:59.305Z,13.53
2019-04-16T22:38:31.927Z,12.73
2019-04-16T22:41:08.578Z,13.00
2019-04-16T22:43:58.118Z,13.30
2019-04-16T22:46:32.543Z,12.40
2019-04-16T22:49:03.060Z,13.23
2019-04-16T22:51:33.450Z,11.90
2019-04-16T22:54:04.011Z,13.37
2019-04-16T22:56:42.819Z,12.53
2019-04-16T22:59:13.219Z,12.40
2019-04-16T23:01:45.512Z,12.63
2019-04-16T23:04:16.270Z,11.80
2019-04-16T23:06:46.909Z,11.77
2019-04-16T23:09:18.017Z,12.00
2019-04-16T23:11:48.529Z,11.73
2019-04-16T23:14:18.953Z,11.93
2019-04-16T23:16:50.937Z,11.90
2019-04-16T23:19:24.337Z,10.20
2019-04-16T23:21:54.833Z,12.17
2019-04-16T23:24:25.402Z,10.97
2019-04-16T23:26:55.840Z,11.47
2019-04-16T23:29:26.655Z,11.87
2019-04-16T23:31:57.579Z,12.60
2019-04-16T23:34:28.240Z,11.27
2019-04-16T23:36:58.816Z,11.07
2019-04-16T23:39:29.272Z,12.33
2019-04-16T23:41:59.833Z,11.33
2019-04-16T23:44:41.631Z,11.77
2019-04-16T23:47:30.553Z,11.13
2019-04-16T23:50:19.956Z,10.50
2019-04-16T23:53:07.203Z,11.97
2019-04-16T23:55:49.896Z,11.60
2019-04-16T23:58:31.067Z,11.20
